createdAt,value
2022-07-29T00:02:10.308Z,17.00
2022-07-29T00:05:11.323Z,17.00
2022-07-29T00:08:12.715Z,17.00
2022-07-29T00:11:13.343Z,17.00
2022-07-29T00:14:14.604Z,17.00
2022-07-29T00:17:15.306Z,16.90
2022-07-29T00:20:21.298Z,16.90
2022-07-29T00:23:22.326Z,16.90
2022-07-29T00:26:23.278Z,16.90
2022-07-29T00:29:34.045Z,16.90
2022-07-29T00:32:35.320Z,16.80
2022-07-29T00:35:51.258Z,16.80
2022-07-29T00:38:53.329Z,16.80
2022-07-29T00:41:54.419Z,16.80
2022-07-29T00:44:56.302Z,16.80
2022-07-29T00:47:57.433Z,16.70
2022-07-29T00:50:58.340Z,16.60
2022-07-29T00:53:59.297Z,16.60
2022-07-29T00:57:00.316Z,16.60
2022-07-29T01:00:01.286Z,16.50
2022-07-29T01:03:03.369Z,16.50
2022-07-29T01:06:05.280Z,16.50
2022-07-29T01:09:06.346Z,16.50
2022-07-29T01:12:08.359Z,16.50
2022-07-29T01:15:11.290Z,16.40
2022-07-29T01:18:48.343Z,16.40
2022-07-29T01:22:06.346Z,16.40
2022-07-29T01:25:35.321Z,16.40
2022-07-29T01:28:54.448Z,16.40
2022-07-29T01:32:28.871Z,16.40
2022-07-29T01:35:54.332Z,16.30
2022-07-29T01:38:59.364Z,16.30
2022-07-29T01:42:38.355Z,16.30
2022-07-29T01:45:56.305Z,16.30
2022-07-29T01:49:14.353Z,16.30
2022-07-29T01:52:22.458Z,16.30
2022-07-29T01:55:31.556Z,16.20
2022-07-29T01:58:33.378Z,16.20
2022-07-29T02:01:36.302Z,16.20
2022-07-29T02:04:39.393Z,16.20
2022-07-29T02:07:43.373Z,16.20
2022-07-29T02:10:47.392Z,16.10
2022-07-29T02:13:51.366Z,16.10
2022-07-29T02:16:54.396Z,16.10
2022-07-29T02:19:57.374Z,16.10
2022-07-29T02:23:00.568Z,16.10
2022-07-29T02:26:07.501Z,16.10
2022-07-29T02:29:10.410Z,16.00
2022-07-29T02:32:13.333Z,16.00
2022-07-29T02:35:16.407Z,16.00
2022-07-29T02:38:36.390Z,16.00
2022-07-29T02:41:56.417Z,16.00
2022-07-29T02:44:57.495Z,15.90
2022-07-29T02:48:04.345Z,15.90
2022-07-29T02:51:13.346Z,15.90
2022-07-29T02:54:53.365Z,15.80
2022-07-29T02:58:04.419Z,15.80
2022-07-29T03:01:07.423Z,15.80
2022-07-29T03:04:09.400Z,15.80
2022-07-29T03:07:13.510Z,15.80
2022-07-29T03:10:16.419Z,15.70
2022-07-29T03:13:20.423Z,15.80
2022-07-29T03:16:22.451Z,15.80
2022-07-29T03:19:23.413Z,15.70
2022-07-29T03:22:24.433Z,15.60
2022-07-29T03:25:26.420Z,15.60
2022-07-29T03:28:27.484Z,15.60
2022-07-29T03:31:28.410Z,15.60
2022-07-29T03:34:29.448Z,15.50
2022-07-29T03:37:30.401Z,15.50
2022-07-29T03:40:56.702Z,15.50
2022-07-29T03:43:51.413Z,15.40
2022-07-29T03:46:54.547Z,15.30
2022-07-29T03:49:56.436Z,15.30
2022-07-29T03:52:57.436Z,15.20
2022-07-29T03:56:01.377Z,15.10
2022-07-29T03:59:06.452Z,15.00
2022-07-29T04:02:09.426Z,14.90
2022-07-29T04:05:10.444Z,14.90
2022-07-29T04:08:11.577Z,14.80
2022-07-29T04:11:12.413Z,14.80
2022-07-29T04:14:13.728Z,14.70
2022-07-29T04:17:15.405Z,14.70
2022-07-29T04:20:16.407Z,14.60
2022-07-29T04:23:17.455Z,14.60
2022-07-29T04:26:18.477Z,14.60
2022-07-29T04:29:19.470Z,14.60
2022-07-29T04:32:20.493Z,14.60
2022-07-29T04:35:21.573Z,14.60
2022-07-29T04:38:22.403Z,14.60
2022-07-29T04:41:23.488Z,14.60
2022-07-29T04:44:33.471Z,14.60
2022-07-29T04:47:40.473Z,14.60
2022-07-29T04:50:34.483Z,14.60
2022-07-29T04:53:35.495Z,14.60
2022-07-29T04:56:36.485Z,14.60
2022-07-29T04:59:37.423Z,14.60
2022-07-29T05:02:38.528Z,14.60
2022-07-29T05:05:39.500Z,14.60
2022-07-29T05:08:41.841Z,14.60
2022-07-29T05:11:35.610Z,14.60
2022-07-29T05:14:36.602Z,14.60
2022-07-29T05:17:37.484Z,14.50
2022-07-29T05:20:38.434Z,14.50
2022-07-29T05:23:39.422Z,14.40
2022-07-29T05:26:40.454Z,14.40
2022-07-29T05:29:44.566Z,14.40
2022-07-29T05:32:46.453Z,14.40
2022-07-29T05:35:47.496Z,14.30
2022-07-29T05:38:49.510Z,14.30
2022-07-29T05:41:52.070Z,14.40
2022-07-29T05:44:53.456Z,14.40
2022-07-29T05:47:54.493Z,14.40
2022-07-29T05:50:55.724Z,14.40
2022-07-29T05:53:56.440Z,14.40
2022-07-29T05:56:57.528Z,14.50
2022-07-29T05:59:58.464Z,14.50
2022-07-29T06:03:06.481Z,14.50
2022-07-29T06:06:07.465Z,14.50
2022-07-29T06:09:12.089Z,14.60
2022-07-29T06:12:13.622Z,14.50
2022-07-29T06:15:14.517Z,14.50
2022-07-29T06:18:16.542Z,14.60
2022-07-29T06:21:22.527Z,14.50
2022-07-29T06:24:24.536Z,14.50
2022-07-29T06:27:26.535Z,14.60
2022-07-29T06:30:28.633Z,14.60
2022-07-29T06:33:33.528Z,14.60
2022-07-29T06:36:34.664Z,14.60
2022-07-29T06:39:36.805Z,14.60
2022-07-29T06:42:37.545Z,14.70
2022-07-29T06:45:38.497Z,14.80
2022-07-29T06:48:39.532Z,14.80
2022-07-29T06:51:40.644Z,14.90
2022-07-29T06:54:41.532Z,14.90
2022-07-29T06:57:42.499Z,15.00
2022-07-29T07:00:43.544Z,15.10
2022-07-29T07:03:45.497Z,15.20
2022-07-29T07:06:47.496Z,15.30
2022-07-29T07:09:48.510Z,15.40
2022-07-29T07:12:49.646Z,15.50
2022-07-29T07:15:51.873Z,15.60
2022-07-29T07:18:52.513Z,15.60
2022-07-29T07:21:46.574Z,15.70
2022-07-29T07:24:47.673Z,15.60
2022-07-29T07:27:48.495Z,15.60
2022-07-29T07:30:49.516Z,15.60
2022-07-29T07:33:50.656Z,15.60
2022-07-29T07:36:51.535Z,15.70
2022-07-29T07:39:52.576Z,15.70
2022-07-29T07:42:55.572Z,15.80
2022-07-29T07:45:56.555Z,15.80
2022-07-29T07:48:57.581Z,16.00
2022-07-29T07:51:58.552Z,16.10
2022-07-29T07:54:59.534Z,16.10
2022-07-29T07:58:00.537Z,16.10
2022-07-29T08:01:01.664Z,16.20
2022-07-29T08:04:03.592Z,16.20
2022-07-29T08:07:04.539Z,16.30
2022-07-29T08:10:05.992Z,16.30
2022-07-29T08:13:06.601Z,16.40
2022-07-29T08:16:08.739Z,16.40
2022-07-29T08:19:09.651Z,16.40
2022-07-29T08:22:10.611Z,16.50
2022-07-29T08:25:11.706Z,16.60
2022-07-29T08:28:13.709Z,16.70
2022-07-29T08:31:14.630Z,16.80
2022-07-29T08:34:09.678Z,16.90
2022-07-29T08:37:10.604Z,17.00
2022-07-29T08:40:11.632Z,17.10
2022-07-29T08:43:13.569Z,17.30
2022-07-29T08:46:15.641Z,17.40
2022-07-29T08:49:16.800Z,17.60
2022-07-29T08:52:17.619Z,17.70
2022-07-29T08:55:21.413Z,17.80
2022-07-29T08:58:25.135Z,17.80
2022-07-29T09:01:35.584Z,18.00
2022-07-29T09:04:41.581Z,18.20
2022-07-29T09:07:42.737Z,18.30
2022-07-29T09:10:45.762Z,18.50
2022-07-29T09:13:46.644Z,18.70
2022-07-29T09:17:05.180Z,18.90
2022-07-29T09:20:06.645Z,19.10
2022-07-29T09:23:07.883Z,19.30
2022-07-29T09:26:08.693Z,19.60
2022-07-29T09:29:09.588Z,19.90
2022-07-29T09:32:10.656Z,20.20
2022-07-29T09:35:34.665Z,20.40
2022-07-29T09:38:35.680Z,20.60
2022-07-29T09:41:37.661Z,20.70
2022-07-29T09:44:39.614Z,20.80
2022-07-29T09:48:04.914Z,20.80
2022-07-29T09:51:07.659Z,20.90
2022-07-29T09:54:11.775Z,20.90
2022-07-29T09:57:12.595Z,21.00
2022-07-29T10:00:19.721Z,21.10
2022-07-29T10:03:20.683Z,21.30
2022-07-29T10:06:25.673Z,21.30
2022-07-29T10:09:26.600Z,21.30
2022-07-29T10:12:27.795Z,21.40
2022-07-29T10:15:29.624Z,21.40
2022-07-29T10:18:24.759Z,21.40
2022-07-29T10:21:35.895Z,21.50
2022-07-29T10:24:40.714Z,21.60
2022-07-29T10:27:41.688Z,21.80
2022-07-29T10:30:42.636Z,21.90
2022-07-29T10:34:05.647Z,22.10
2022-07-29T10:37:35.953Z,22.10
2022-07-29T10:41:31.992Z,22.20
2022-07-29T10:44:38.652Z,22.20
2022-07-29T10:47:42.733Z,22.30
2022-07-29T10:51:15.666Z,22.20
2022-07-29T10:54:18.739Z,22.10
2022-07-29T10:57:53.994Z,22.00
2022-07-29T11:00:46.718Z,21.90
2022-07-29T11:04:02.660Z,22.00
2022-07-29T11:07:23.720Z,22.00
2022-07-29T11:10:31.264Z,22.10
2022-07-29T11:13:50.663Z,22.10
2022-07-29T11:17:19.677Z,22.30
2022-07-29T11:20:47.779Z,22.50
2022-07-29T11:23:50.680Z,22.70
2022-07-29T11:26:51.843Z,22.80
2022-07-29T11:30:01.702Z,23.00
2022-07-29T11:33:03.658Z,23.20
2022-07-29T11:36:27.910Z,23.30
2022-07-29T11:39:43.675Z,23.30
2022-07-29T11:42:46.686Z,23.10
2022-07-29T11:46:00.710Z,22.90
2022-07-29T11:49:02.756Z,22.70
2022-07-29T11:52:11.702Z,22.70
2022-07-29T11:55:16.777Z,22.60
2022-07-29T11:58:18.845Z,22.60
2022-07-29T12:01:19.677Z,22.60
2022-07-29T12:04:20.709Z,22.60
2022-07-29T12:07:21.748Z,22.60
2022-07-29T12:10:33.723Z,22.60
2022-07-29T12:13:43.183Z,22.70
2022-07-29T12:16:50.798Z,22.60
2022-07-29T12:19:57.700Z,22.50
2022-07-29T12:23:01.763Z,22.50
2022-07-29T12:26:03.777Z,22.50
2022-07-29T12:29:11.207Z,22.50
2022-07-29T12:32:14.675Z,22.50
2022-07-29T12:35:21.724Z,22.60
2022-07-29T12:38:25.870Z,22.60
2022-07-29T12:41:27.788Z,22.60
2022-07-29T12:44:28.781Z,22.60
2022-07-29T12:47:30.730Z,22.60
2022-07-29T12:50:32.802Z,22.80
2022-07-29T12:53:33.817Z,22.80
2022-07-29T12:56:44.965Z,22.90
2022-07-29T12:59:45.729Z,23.00
2022-07-29T13:02:46.965Z,23.10
2022-07-29T13:05:58.788Z,23.30
2022-07-29T13:09:23.857Z,23.40
2022-07-29T13:12:28.745Z,23.50
2022-07-29T13:15:31.120Z,23.50
2022-07-29T13:18:49.764Z,23.50
2022-07-29T13:21:52.819Z,23.60
2022-07-29T13:25:13.801Z,23.70
2022-07-29T13:28:14.760Z,23.80
2022-07-29T13:31:15.812Z,24.10
2022-07-29T13:34:16.829Z,24.30
2022-07-29T13:37:17.828Z,24.40
2022-07-29T13:40:22.777Z,24.50
2022-07-29T13:43:24.960Z,24.50
2022-07-29T13:46:25.860Z,24.50
2022-07-29T13:49:26.813Z,24.50
2022-07-29T13:52:28.872Z,24.40
2022-07-29T13:55:29.773Z,24.40
2022-07-29T13:58:30.836Z,24.40
2022-07-29T14:01:39.860Z,24.50
2022-07-29T14:04:40.807Z,24.50
2022-07-29T14:07:41.947Z,24.50
2022-07-29T14:10:42.851Z,24.50
2022-07-29T14:13:43.854Z,24.60
2022-07-29T14:16:47.850Z,24.60
2022-07-29T14:19:52.809Z,24.70
2022-07-29T14:22:53.808Z,24.80
2022-07-29T14:25:55.851Z,24.70
2022-07-29T14:28:56.956Z,24.70
2022-07-29T14:31:58.180Z,24.70
2022-07-29T14:34:58.866Z,24.60
2022-07-29T14:37:59.867Z,24.50
2022-07-29T14:41:00.869Z,24.30
2022-07-29T14:44:01.795Z,24.20
2022-07-29T14:47:07.622Z,24.20
2022-07-29T14:50:08.881Z,24.20
2022-07-29T14:53:09.936Z,24.10
2022-07-29T14:56:35.508Z,24.20
2022-07-29T14:59:31.894Z,24.20
2022-07-29T15:02:59.219Z,24.10
2022-07-29T15:05:54.009Z,24.00
2022-07-29T15:08:54.896Z,23.90
2022-07-29T15:11:56.193Z,23.80
2022-07-29T15:14:56.838Z,23.80
2022-07-29T15:17:57.918Z,23.60
2022-07-29T15:20:58.844Z,23.40
2022-07-29T15:23:59.859Z,23.20
2022-07-29T15:27:01.941Z,23.10
2022-07-29T15:30:03.086Z,23.00
2022-07-29T15:33:03.969Z,22.90
2022-07-29T15:36:04.869Z,22.80
2022-07-29T15:39:08.876Z,22.80
2022-07-29T15:42:10.011Z,22.80
2022-07-29T15:45:10.947Z,22.80
2022-07-29T15:48:14.828Z,22.80
2022-07-29T15:51:15.859Z,22.80
2022-07-29T15:54:17.917Z,22.60
2022-07-29T15:57:20.993Z,22.50
2022-07-29T16:00:23.906Z,22.50
2022-07-29T16:03:24.966Z,22.50
2022-07-29T16:06:25.932Z,22.50
2022-07-29T16:09:27.939Z,22.50
2022-07-29T16:12:28.945Z,22.70
2022-07-29T16:15:29.984Z,22.70
2022-07-29T16:18:31.055Z,22.80
2022-07-29T16:21:31.894Z,22.80
2022-07-29T16:24:35.908Z,22.80
2022-07-29T16:27:38.024Z,22.80
2022-07-29T16:30:39.050Z,22.80
2022-07-29T16:33:55.606Z,22.80
2022-07-29T16:36:56.961Z,22.90
2022-07-29T16:39:50.898Z,23.00
2022-07-29T16:42:51.900Z,23.00
2022-07-29T16:45:54.083Z,23.00
2022-07-29T16:48:55.952Z,22.80
2022-07-29T16:51:56.960Z,22.80
2022-07-29T16:54:57.975Z,22.70
2022-07-29T16:58:00.966Z,22.70
2022-07-29T17:01:02.118Z,22.80
2022-07-29T17:04:15.085Z,22.80
2022-07-29T17:07:15.970Z,22.80
2022-07-29T17:10:16.906Z,22.80
2022-07-29T17:13:17.980Z,22.80
2022-07-29T17:16:19.126Z,22.80
2022-07-29T17:19:19.969Z,22.60
2022-07-29T17:22:21.986Z,22.60
2022-07-29T17:25:23.915Z,22.50
2022-07-29T17:28:25.101Z,22.50
2022-07-29T17:31:26.013Z,22.40
2022-07-29T17:34:27.093Z,22.40
2022-07-29T17:37:27.976Z,22.30
2022-07-29T17:40:29.011Z,22.20
2022-07-29T17:43:30.019Z,22.10
2022-07-29T17:46:34.038Z,22.10
2022-07-29T17:49:36.280Z,22.00
2022-07-29T17:52:37.997Z,21.90
2022-07-29T17:55:38.950Z,21.90
2022-07-29T17:58:40.091Z,21.80
2022-07-29T18:01:42.000Z,21.80
2022-07-29T18:04:43.033Z,21.70
2022-07-29T18:07:43.964Z,21.70
2022-07-29T18:10:45.018Z,21.50
2022-07-29T18:13:46.139Z,21.50
2022-07-29T18:16:47.012Z,21.40
2022-07-29T18:19:48.040Z,21.30
2022-07-29T18:22:49.026Z,21.30
2022-07-29T18:25:50.985Z,21.40
2022-07-29T18:28:52.152Z,21.50
2022-07-29T18:31:53.027Z,21.60
2022-07-29T18:34:54.042Z,21.70
2022-07-29T18:38:01.383Z,21.90
2022-07-29T18:41:03.045Z,22.30
2022-07-29T18:44:03.979Z,22.40
2022-07-29T18:47:06.104Z,22.70
2022-07-29T18:50:06.993Z,23.00
2022-07-29T18:53:10.094Z,23.30
2022-07-29T18:56:11.042Z,23.50
2022-07-29T18:59:12.024Z,23.40
2022-07-29T19:02:13.060Z,23.20
2022-07-29T19:05:14.019Z,22.90
2022-07-29T19:08:15.010Z,22.70
2022-07-29T19:11:16.004Z,22.40
2022-07-29T19:14:18.066Z,22.20
2022-07-29T19:17:19.012Z,21.90
2022-07-29T19:20:24.088Z,21.70
2022-07-29T19:23:25.024Z,21.50
2022-07-29T19:26:27.091Z,21.30
2022-07-29T19:29:30.054Z,21.10
2022-07-29T19:32:32.029Z,21.00
2022-07-29T19:35:38.069Z,20.80
2022-07-29T19:38:39.191Z,20.80
2022-07-29T19:41:41.036Z,20.60
2022-07-29T19:44:42.201Z,20.40
2022-07-29T19:47:43.019Z,20.20
2022-07-29T19:50:44.097Z,20.00
2022-07-29T19:53:45.091Z,19.80
2022-07-29T19:56:47.202Z,19.70
2022-07-29T19:59:48.066Z,19.50
2022-07-29T20:02:50.183Z,19.40
2022-07-29T20:05:51.046Z,19.20
2022-07-29T20:08:58.197Z,19.00
2022-07-29T20:11:59.068Z,18.80
2022-07-29T20:15:00.055Z,18.70
2022-07-29T20:18:01.137Z,18.50
2022-07-29T20:21:04.943Z,18.40
2022-07-29T20:24:09.169Z,18.30
2022-07-29T20:27:13.350Z,18.10
2022-07-29T20:30:15.059Z,18.00
2022-07-29T20:33:16.210Z,17.80
2022-07-29T20:36:18.094Z,17.80
2022-07-29T20:39:19.064Z,17.70
2022-07-29T20:42:20.140Z,17.70
2022-07-29T20:45:22.237Z,17.60
2022-07-29T20:48:23.287Z,17.60
2022-07-29T20:51:24.132Z,17.50
2022-07-29T20:54:26.067Z,17.40
2022-07-29T20:57:39.414Z,17.30
2022-07-29T21:00:41.123Z,17.30
2022-07-29T21:03:42.147Z,17.20
2022-07-29T21:06:44.162Z,17.10
2022-07-29T21:09:45.140Z,17.10
2022-07-29T21:12:46.094Z,17.00
2022-07-29T21:15:48.329Z,16.90
2022-07-29T21:18:50.149Z,16.90
2022-07-29T21:21:51.125Z,16.80
2022-07-29T21:24:53.107Z,16.80
2022-07-29T21:28:12.182Z,16.80
2022-07-29T21:31:15.270Z,16.70
2022-07-29T21:34:16.149Z,16.60
2022-07-29T21:37:17.114Z,16.60
2022-07-29T21:40:20.085Z,16.60
2022-07-29T21:43:21.094Z,16.60
2022-07-29T21:46:24.536Z,16.50
2022-07-29T21:49:25.211Z,16.60
2022-07-29T21:52:26.110Z,16.60
2022-07-29T21:55:27.498Z,16.60
2022-07-29T21:58:30.162Z,16.50
2022-07-29T22:01:39.244Z,16.50
2022-07-29T22:04:44.206Z,16.50
2022-07-29T22:07:56.052Z,16.50
2022-07-29T22:10:58.126Z,16.50
2022-07-29T22:13:59.181Z,16.40
2022-07-29T22:17:01.489Z,16.40
2022-07-29T22:20:02.192Z,16.30
2022-07-29T22:23:03.183Z,16.40
2022-07-29T22:26:04.168Z,16.30
2022-07-29T22:29:05.312Z,16.30
2022-07-29T22:32:06.204Z,16.30
2022-07-29T22:35:07.306Z,16.30
2022-07-29T22:38:08.124Z,16.20
2022-07-29T22:41:09.305Z,16.20
2022-07-29T22:44:10.161Z,16.10
2022-07-29T22:47:11.143Z,16.10
2022-07-29T22:50:12.199Z,16.10
2022-07-29T22:53:06.340Z,16.00
2022-07-29T22:56:07.160Z,15.90
2022-07-29T22:59:08.166Z,15.90
2022-07-29T23:02:09.204Z,15.90
2022-07-29T23:05:10.308Z,15.90
2022-07-29T23:08:11.178Z,15.90
2022-07-29T23:11:12.156Z,15.90
2022-07-29T23:14:13.179Z,15.90
2022-07-29T23:17:14.263Z,15.90
2022-07-29T23:20:15.213Z,15.90
2022-07-29T23:23:16.152Z,15.90
2022-07-29T23:26:17.233Z,15.90
2022-07-29T23:29:18.370Z,15.90
2022-07-29T23:32:19.179Z,15.90
2022-07-29T23:35:21.186Z,15.90
2022-07-29T23:38:22.250Z,16.00
2022-07-29T23:41:23.348Z,15.90
2022-07-29T23:44:24.221Z,15.90
2022-07-29T23:47:25.230Z,16.00
2022-07-29T23:50:26.228Z,16.10
2022-07-29T23:53:27.185Z,16.10
2022-07-29T23:56:28.172Z,16.20
2022-07-29T23:59:29.244Z,16.30
